• Join FlightAware (Why Join?)
  • Login
  • US Flag 
Gobble Gobble! 
01:32PM EST


 

Airport Tracker/Info


-or-


 

Live Flight TrackerFlight Track Log ✈ ACA796 ✈ 29-Jul-2013 ✈ KLAX - CYYZ

Flight Track Log - Related Links

Times and Time Zones

All times are in EDT time to prevent confusion due to time zone crossing. See the ACA796 flight status page for this flight to view local times or setup timezone preferences in your user account.

Time Position Orientation Groundspeed Altitude Reporting Facility
EDT Latitude Longitude Course Direction KTS MPH feet Rate Location/Type
07:00PM 33.9464 -118.4417 265° West 160 184 1,400  Level Los Angeles Center
07:01PM 33.9417 -118.5108 265° West 205 236 3,000 2,040 Climbing Los Angeles Center
07:02PM 33.9314 -118.6008 262° West 252 290 5,600 2,580 Climbing Los Angeles Center
07:03PM 33.8669 -118.6344 203° Southwest 275 316 8,300 2,460 Climbing Los Angeles Center
07:04PM 33.8339 -118.5547 117° Southeast 294 338 10,700 1,980 Climbing Los Angeles Center
07:05PM 33.9008 -118.4697 46° Northeast 345 397 12,500 1,980 Climbing Los Angeles Center
07:06PM 33.9656 -118.3769 50° Northeast 363 418 14,800 2,160 Climbing Los Angeles Center
07:07PM 34.0250 -118.2714 56° Northeast 375 432 17,000 1,980 Climbing Los Angeles Center
07:08PM 34.0864 -118.1639 55° Northeast 383 441 18,900 1,740 Climbing Los Angeles Center
07:09PM 34.1572 -118.0575 51° Northeast 400 460 20,700 1,620 Climbing Los Angeles Center
07:10PM 34.2300 -117.9517 50° Northeast 407 468 22,300 1,440 Climbing Los Angeles Center
07:11PM 34.3061 -117.8408 50° Northeast 424 488 23,700 1,380 Climbing Los Angeles Center
07:12PM 34.3911 -117.7192 50° Northeast 440 506 25,200 1,440 Climbing Los Angeles Center
07:13PM 34.4711 -117.6003 51° Northeast 455 524 26,700 1,380 Climbing Los Angeles Center
07:14PM 34.5675 -117.4575 51° Northeast 459 528 28,100 1,200 Climbing Los Angeles Center
07:15PM 34.6497 -117.3353 51° Northeast 470 541 29,200 1,020 Climbing Los Angeles Center
07:16PM 34.7331 -117.2108 51° Northeast 477 549 30,300 960 Climbing Los Angeles Center
07:17PM 34.8181 -117.0853 50° Northeast 485 558 31,200 960 Climbing Los Angeles Center
07:19PM 34.9033 -116.9564 51° Northeast 491 565 32,300 1,020 Climbing Los Angeles Center
07:20PM 35.0072 -116.8011 51° Northeast 494 568 33,400 960 Climbing Los Angeles Center
07:21PM 35.0931 -116.6725 51° Northeast 495 570 34,300 780 Climbing Los Angeles Center
07:22PM 35.1803 -116.5417 51° Northeast 497 572 35,100 660 Climbing Los Angeles Center
07:23PM 35.2672 -116.4111 51° Northeast 496 571 35,700 540 Climbing Los Angeles Center
07:24PM 35.3553 -116.2778 51° Northeast 502 578 36,300 540 Climbing Los Angeles Center
07:25PM 35.4414 -116.1433 52° Northeast 503 579 36,900 300 Climbing Los Angeles Center
07:26PM 35.5483 -115.9828 51° Northeast 507 583 37,000  Climbing Los Angeles Center
07:27PM 35.6319 -115.8539 51° Northeast 509 586 37,000  Level Los Angeles Center
07:28PM 35.7192 -115.7200 51° Northeast 504 580 37,000  Level Los Angeles Center
07:29PM 35.8244 -115.5578 51° Northeast 506 582 37,000  Level Los Angeles Center
07:30PM 35.9111 -115.4222 52° Northeast 508 585 37,000  Level Los Angeles Center
07:31PM 35.9975 -115.2864 52° Northeast 508 585 37,000  Level Los Angeles Center
07:32PM 36.0825 -115.1508 52° Northeast 504 580 37,000  Level Los Angeles Center
07:33PM 36.1567 -115.0022 58° Northeast 511 588 37,000  Level Los Angeles Center
07:34PM 36.2464 -114.8242 58° Northeast 511 588 37,000  Level Los Angeles Center
07:35PM 36.3211 -114.6736 58° Northeast 513 590 37,000  Level Los Angeles Center
07:36PM 36.3950 -114.5225 59° Northeast 514 592 37,000  Level Los Angeles Center
07:37PM 36.4694 -114.3722 58° Northeast 512 589 37,000  Level Los Angeles Center
07:38PM 36.5447 -114.2222 58° Northeast 512 589 37,000  Level Los Angeles Center
07:39PM 36.6297 -114.0483 59° Northeast 510 587 37,000  Level Los Angeles Center
07:40PM 36.7042 -113.8981 58° Northeast 510 587 37,000  Level Los Angeles Center
07:41PM 36.7778 -113.7469 59° Northeast 511 588 37,000  Level Los Angeles Center
07:42PM 36.8497 -113.5967 59° Northeast 508 585 37,000  Level Los Angeles Center
07:43PM 36.9239 -113.4464 58° Northeast 509 586 37,000  Level Los Angeles Center
07:44PM 36.9956 -113.2956 59° Northeast 507 583 37,000  Level Los Angeles Center
07:45PM 37.0847 -113.1142 58° Northeast 510 587 37,000  Level Los Angeles Center
07:46PM 37.1564 -112.9622 59° Northeast 509 586 37,000  Level Los Angeles Center
07:47PM 37.1978 -112.8719 60° Northeast 509 586 37,000  Level Salt Lake Center
07:48PM 37.2844 -112.6900 59° Northeast 511 588 37,000  Level Salt Lake Center
07:49PM 37.3547 -112.5372 60° Northeast 512 589 37,000  Level Salt Lake Center
07:50PM 37.4269 -112.3864 59° Northeast 511 588 37,000  Level Salt Lake Center
07:51PM 37.4978 -112.2347 59° Northeast 509 586 37,000  Level Salt Lake Center
07:52PM 37.5689 -112.0814 60° Northeast 509 586 37,000  Level Salt Lake Center
07:53PM 37.6542 -111.8964 60° Northeast 511 588 37,000  Level Salt Lake Center
07:54PM 37.7244 -111.7403 60° Northeast 513 590 37,000  Level Salt Lake Center
07:55PM 37.7953 -111.5864 60° Northeast 510 587 37,000  Level Salt Lake Center
07:56PM 37.8669 -111.4331 59° Northeast 509 586 37,000  Level Salt Lake Center
07:57PM 37.9369 -111.2775 60° Northeast 509 586 37,000  Level Salt Lake Center
07:58PM 38.0069 -111.1228 60° Northeast 508 585 37,000  Level Salt Lake Center
07:59PM 38.0758 -110.9678 61° Northeast 507 583 37,000  Level Salt Lake Center
08:00PM 38.1594 -110.7814 60° Northeast 510 587 37,000  Level Salt Lake Center
08:02PM 38.2258 -110.6317 61° Northeast 509 586 37,000  Level Salt Lake Center
08:03PM 38.3028 -110.4556 61° Northeast 509 586 37,000  Level Salt Lake Center
08:04PM 38.3683 -110.3050 61° Northeast 510 587 37,000  Level Salt Lake Center
08:05PM 38.4339 -110.1547 61° Northeast 508 585 37,000  Level Salt Lake Center
08:06PM 38.5103 -109.9797 61° Northeast 507 583 37,000  Level Salt Lake Center
08:07PM 38.5714 -109.8258 63° Northeast 508 585 37,000  Level Salt Lake Center
08:08PM 38.6414 -109.6458 63° Northeast 508 585 37,000  Level Salt Lake Center
08:09PM 38.7019 -109.4917 63° Northeast 507 583 37,000  Level Salt Lake Center
08:10PM 38.7725 -109.3119 63° Northeast 507 583 37,000  Level Salt Lake Center
08:11PM 38.8319 -109.1575 64° Northeast 507 583 37,000  Level Salt Lake Center
08:12PM 38.9031 -108.9775 63° Northeast 507 583 37,000  Level Salt Lake Center
08:13PM 38.9622 -108.8222 64° Northeast 509 586 37,000  Level Salt Lake Center
08:14PM 39.0225 -108.6353 67° East 509 586 37,000  Level Salt Lake Center
08:15PM 39.0722 -108.4742 68° East 510 587 37,000  Level Salt Lake Center
08:16PM 39.1281 -108.2822 69° East 515 593 37,000  Level Salt Lake Center
08:17PM 39.2042 -108.0319 69° East 516 594 37,000  Level Denver Center
08:18PM 39.2511 -107.8658 70° East 518 596 37,000  Level Denver Center
08:19PM 39.3058 -107.6706 70° East 521 600 37,000  Level Denver Center
08:20PM 39.3572 -107.5042 68° East 523 602 37,000  Level Denver Center
08:21PM 39.3900 -107.3308 76° East 521 600 37,000  Level Denver Center
08:23PM 39.4300 -107.1278 76° East 521 600 37,000  Level Denver Center
08:24PM 39.4597 -106.9567 77° East 513 590 37,000  Level Denver Center
08:25PM 39.5106 -106.7589 72° East 528 608 37,000 -60 Level Denver Center
08:26PM 39.5633 -106.5989 67° East 511 588 36,900  Descending Denver Center
08:27PM 39.6192 -106.4367 66° East 508 585 37,000  Climbing Denver Center
08:28PM 39.6853 -106.2436 66° East 505 581 37,000  Level Denver Center
08:29PM 39.7414 -106.0789 66° East 501 577 37,000  Level Denver Center
08:30PM 39.7972 -105.9111 67° East 504 580 37,000  Level Denver Center
08:31PM 39.8539 -105.7386 67° East 517 595 37,000  Level Denver Center
08:32PM 39.9106 -105.5672 67° East 511 588 37,000  Level Denver Center
08:33PM 39.9758 -105.3603 68° East 512 589 37,100  Climbing Denver Center
08:34PM 40.0317 -105.1903 67° East 510 587 37,000 -60 Descending Denver Center
08:35PM 40.0875 -105.0186 67° East 509 586 37,000  Level Denver Center
08:36PM 40.1439 -104.8467 67° East 509 586 37,000  Level Denver Center
08:37PM 40.1961 -104.6769 68° East 505 581 37,000  Level Denver Center
08:38PM 40.2511 -104.5044 67° East 511 588 37,000  Level Denver Center
08:39PM 40.3022 -104.3369 68° East 496 571 37,000  Level Denver Center
08:40PM 40.3569 -104.1650 67° East 507 583 37,000  Level Denver Center
08:41PM 40.4203 -103.9619 68° East 499 574 37,000  Level Denver Center
08:42PM 40.4728 -103.7931 68° East 493 567 37,000  Level Denver Center
08:43PM 40.5256 -103.6211 68° East 508 585 37,000  Level Denver Center
08:44PM 40.5794 -103.4494 67° East 509 586 37,000  Level Denver Center
08:45PM 40.6303 -103.2772 69° East 507 583 37,000  Level Denver Center
08:46PM 40.6828 -103.1047 68° East 507 583 37,000  Level Denver Center
08:47PM 40.7483 -102.8842 69° East 504 580 37,000  Level Denver Center
08:49PM 40.8050 -102.6919 69° East 502 578 37,000  Level Denver Center
08:50PM 40.8544 -102.5261 68° East 505 581 37,000  Level Denver Center
08:51PM 40.9025 -102.3600 69° East 506 582 37,000  Level Denver Center
08:52PM 40.9583 -102.1650 69° East 507 583 37,000  Level Denver Center
08:53PM 41.0044 -102.0000 70° East 501 577 37,000  Level Denver Center
08:54PM 41.0617 -101.8056 69° East 503 579 37,000  Level Denver Center
08:55PM 41.1106 -101.6375 69° East 509 586 37,000  Level Denver Center
08:56PM 41.1661 -101.4406 69° East 508 585 37,000  Level Denver Center
08:57PM 41.2131 -101.2722 70° East 507 583 37,000  Level Denver Center
08:58PM 41.2611 -101.1025 69° East 509 586 37,000  Level Denver Center
08:59PM 41.3153 -100.9050 70° East 507 583 37,000  Level Denver Center
09:00PM 41.3619 -100.7367 70° East 506 582 37,000  Level Denver Center
09:01PM 41.4150 -100.5403 70° East 504 580 37,000  Level Denver Center
09:02PM 41.4608 -100.3719 70° East 503 579 37,000  Level Denver Center
09:03PM 41.5056 -100.2050 70° East 500 575 37,000  Level Denver Center
09:04PM 41.5589 -100.0100 70° East 499 574 37,000  Level Denver Center
09:05PM 41.6025 -99.8431 71° East 498 573 37,000  Level Denver Center
09:06PM 41.6536 -99.6464 71° East 496 571 37,000  Level Denver Center
09:07PM 41.6989 -99.4719 71° East 494 568 37,000  Level Denver Center
09:08PM 41.7267 -99.3675 70° East 495 570 37,000  Level Minneapolis Center
09:09PM 41.7706 -99.1922 71° East 494 568 37,000  Level Minneapolis Center
09:10PM 41.8158 -99.0167 71° East 495 570 37,000  Level Minneapolis Center
09:11PM 41.8606 -98.8406 71° East 496 571 37,000  Level Minneapolis Center
09:12PM 41.9053 -98.6642 71° East 498 573 37,000  Level Minneapolis Center
09:13PM 41.9497 -98.4881 71° East 497 572 37,000  Level Minneapolis Center
09:14PM 41.9928 -98.3114 72° East 496 571 37,000  Level Minneapolis Center
09:15PM 42.0372 -98.1311 72° East 497 572 37,000  Level Minneapolis Center
09:16PM 42.0897 -97.9192 71° East 498 573 37,000  Level Minneapolis Center
09:17PM 42.1333 -97.7417 72° East 498 573 37,000  Level Minneapolis Center
09:18PM 42.1753 -97.5636 72° East 498 573 37,000  Level Minneapolis Center
09:19PM 42.2167 -97.3864 72° East 497 572 37,000  Level Minneapolis Center
09:20PM 42.2597 -97.2081 72° East 498 573 37,000  Level Minneapolis Center
09:21PM 42.3003 -97.0300 73° East 496 571 37,000  Level Minneapolis Center
09:22PM 42.3503 -96.8178 72° East 494 568 37,000  Level Minneapolis Center
09:23PM 42.3994 -96.6042 73° East 495 570 37,000  Level Minneapolis Center
09:24PM 42.4397 -96.4247 73° East 496 571 37,000  Level Minneapolis Center
09:25PM 42.4803 -96.2469 73° East 494 568 37,000  Level Minneapolis Center
09:26PM 42.5206 -96.0672 73° East 498 573 37,000  Level Minneapolis Center
09:28PM 42.5611 -95.8878 73° East 498 573 37,000  Level Minneapolis Center
09:29PM 42.6014 -95.7042 73° East 500 575 37,000  Level Minneapolis Center
09:30PM 42.6472 -95.4883 74° East 500 575 37,000  Level Minneapolis Center
09:31PM 42.6881 -95.3081 73° East 499 574 37,000  Level Minneapolis Center
09:32PM 42.7258 -95.1264 74° East 499 574 37,000  Level Minneapolis Center
09:33PM 42.7642 -94.9506 73° East 495 570 37,000  Level Minneapolis Center
09:34PM 42.8019 -94.7694 74° East 497 572 37,000  Level Minneapolis Center
09:35PM 42.8419 -94.5794 74° East 498 573 37,000  Level Minneapolis Center
09:36PM 42.8789 -94.3992 74° East 498 573 37,000  Level Minneapolis Center
09:37PM 42.9150 -94.2183 75° East 499 574 37,000  Level Minneapolis Center
09:38PM 42.9578 -94.0019 75° East 498 573 37,000  Level Minneapolis Center
09:39PM 42.9950 -93.8225 74° East 497 572 37,000  Level Minneapolis Center
09:40PM 43.0325 -93.6431 74° East 496 571 37,000  Level Minneapolis Center
09:41PM 43.0686 -93.4625 75° East 496 571 37,000  Level Minneapolis Center
09:42PM 43.0981 -93.2817 77° East 494 568 37,000  Level Minneapolis Center
09:43PM 43.1014 -93.0542 89° East 502 578 37,000  Level Minneapolis Center
09:44PM 43.1056 -92.8664 88° East 501 577 37,000  Level Minneapolis Center
09:45PM 43.1094 -92.6794 88° East 498 573 37,000  Level Minneapolis Center
09:46PM 43.1133 -92.5283 88° East 499 574 37,000  Level Minneapolis Center
09:47PM 43.1169 -92.3022 89° East 498 573 37,000  Level Minneapolis Center
09:48PM 43.1178 -92.1889 89° East 501 577 37,000  Level Chicago Center
09:48PM 43.1206 -92.1128 87° East 500 575 37,000  Level Minneapolis Center
09:49PM 43.1244 -91.9247 88° East 498 573 37,000  Level Minneapolis Center
09:50PM 43.1283 -91.6961 89° East 499 574 37,000  Level Minneapolis Center
09:51PM 43.1300 -91.5058 89° East 499 574 37,000  Level Minneapolis Center
09:52PM 43.1311 -91.3172 89° East 497 572 37,000  Level Minneapolis Center
09:53PM 43.1317 -91.2433 89° East 498 573 37,000  Level Chicago Center
09:54PM 43.1328 -91.0533 89° East 501 577 37,000  Level Chicago Center
09:54PM 43.1328 -90.9381 90° East 501 577 37,000  Level Minneapolis Center
09:55PM 43.1342 -90.8261 89° East 501 577 37,000  Level Chicago Center
09:56PM 43.1347 -90.6372 90° East 498 573 37,000  Level Chicago Center
09:57PM 43.1358 -90.4489 89° East 497 572 37,000  Level Chicago Center
09:58PM 43.1344 -90.2367 90° East 499 574 37,000  Level Chicago Center
09:59PM 43.1336 -90.0467 90° East 500 575 37,000  Level Chicago Center
10:00PM 43.1339 -89.8567 90° East 500 575 37,000  Level Chicago Center
10:01PM 43.1317 -89.6658 91° East 501 577 37,000  Level Chicago Center
10:02PM 43.1311 -89.4761 90° East 500 575 37,000  Level Chicago Center
10:03PM 43.1289 -89.2856 91° East 504 580 37,000  Level Chicago Center
10:04PM 43.1256 -89.0606 91° East 505 581 37,000  Level Chicago Center
10:05PM 43.1231 -88.8706 91° East 503 579 37,000  Level Chicago Center
10:06PM 43.1214 -88.6800 91° East 503 579 37,000  Level Chicago Center
10:07PM 43.1192 -88.4906 91° East 503 579 37,000  Level Chicago Center
10:08PM 43.1144 -88.3003 92° East 505 581 37,000  Level Chicago Center
10:09PM 43.1206 -88.1097 87° East 505 581 37,000  Level Chicago Center
10:10PM 43.1286 -87.8892 87° East 502 578 37,000  Level Chicago Center
10:11PM 43.1342 -87.6975 88° East 505 581 37,000  Level Chicago Center
10:12PM 43.1386 -87.5067 88° East 504 580 37,000  Level Chicago Center
10:13PM 43.1450 -87.3106 87° East 501 577 37,000  Level Chicago Center
10:14PM 43.1494 -87.1206 88° East 501 577 37,000  Level Chicago Center
10:15PM 43.1533 -86.9297 88° East 502 578 37,000  Level Chicago Center
10:16PM 43.1575 -86.7400 88° East 501 577 37,000  Level Chicago Center
10:17PM 43.1614 -86.5467 88° East 506 582 37,000  Level Chicago Center
10:18PM 43.1658 -86.3544 88° East 505 581 37,000  Level Chicago Center
10:19PM 43.1697 -86.1586 88° East 509 586 37,000  Level Chicago Center
10:20PM 43.1714 -85.9567 89° East 513 590 37,000  Level Chicago Center
10:21PM 43.1811 -85.7589 86° East 510 587 37,000  Level Chicago Center
10:22PM 43.1875 -85.5669 87° East 505 581 37,000  Level Chicago Center
10:24PM 43.1956 -85.3372 87° East 503 579 37,000  Level Chicago Center
10:25PM 43.2028 -85.1475 87° East 501 577 37,000  Level Chicago Center
10:26PM 43.2083 -84.9572 88° East 501 577 37,000  Level Chicago Center
10:27PM 43.2142 -84.7661 88° East 501 577 37,000  Level Chicago Center
10:28PM 43.2206 -84.5742 87° East 503 579 37,000  Level Chicago Center
10:29PM 43.2264 -84.3833 88° East 503 579 37,000  Level Chicago Center
10:30PM 43.2314 -84.1942 88° East 500 575 37,000  Level Chicago Center
10:31PM 43.2353 -84.0047 88° East 498 573 37,000  Level Chicago Center
10:32PM 43.2406 -83.7792 88° East 495 570 37,000  Level Chicago Center
10:33PM 43.2450 -83.5900 88° East 495 570 37,000 -300 Level Chicago Center
10:34PM 43.2494 -83.4036 88° East 491 565 36,500 -1,140 Descending Chicago Center
10:35PM 43.2528 -83.2158 89° East 494 568 34,700 -1,920 Descending Chicago Center
10:36PM 43.2500 -82.9889 91° East 493 567 32,200 -2,280 Descending Cleveland Center
10:37PM 43.2536 -82.8094 88° East 486 559 29,600 -1,620 Descending Cleveland Center
10:38PM 43.2631 -82.6331 86° East 468 539 29,000 -300 Descending Cleveland Center
10:39PM 43.2806 -82.4567 82° East 468 539 29,000  Level Cleveland Center
10:40PM 43.2981 -82.2747 82° East 468 539 29,000  Level Cleveland Center
10:41PM 43.3131 -82.0953 83° East 468 539 29,000  Level Cleveland Center
10:42PM 43.3319 -81.9189 82° East 468 539 29,000  Level Cleveland Center
10:43PM 43.3464 -81.7364 84° East 468 539 29,000  Level Cleveland Center
10:44PM 43.3500 -81.5167 89° East 470 541 29,000 -120 Level Toronto Center
10:45PM 43.3667 -81.3333 83° East 470 541 28,800 -1,140 Descending Toronto Center
10:46PM 43.3833 -81.1500 83° East 450 518 26,800 -1,920 Descending Toronto Center
10:47PM 43.3833 -81.0167 90° East 430 495 25,000 -1,800 Descending Toronto Center
10:48PM 43.4000 -80.8500 82° East 410 472 23,200 -1,800 Descending Toronto Center
10:49PM 43.4333 -80.6833 75° East 390 449 21,400 -1,740 Descending Toronto Center
10:50PM 43.4333 -80.5500 90° East 380 437 19,800 -1,800 Descending Toronto Center
10:51PM 43.4500 -80.4167 80° East 370 426 17,900 -1,680 Descending Toronto Center
10:52PM 43.4667 -80.3000 79° East 360 414 16,500 -1,500 Descending Toronto Center
10:53PM 43.5000 -80.1667 71° East 350 403 15,000 -1,560 Descending Toronto Center
10:54PM 43.5333 -80.0500 68° East 330 380 13,400 -1,620 Descending Toronto Center
10:55PM 43.5667 -79.9333 68° East 320 368 11,800 -1,620 Descending Toronto Center
10:56PM 43.5833 -79.8167 79° East 310 357 10,200 -1,620 Descending Toronto Center
10:57PM 43.5833 -79.7000 90° East 310 357 8,600 -1,560 Descending Toronto Center
10:58PM 43.5833 -79.5833 90° East 300 345 7,100 -1,920 Descending Toronto Center
10:59PM 43.6167 -79.5000 61° Northeast 280 322 4,800 -1,920 Descending Toronto Center
11:00PM 43.6667 -79.4333 44° Northeast 270 311 3,300 -900 Descending Toronto Center
11:01PM 43.7000 -79.3500 61° Northeast 220 253 3,100 -180 Descending Toronto Center
11:02PM 43.7500 -79.3833 334° Northwest 180 207 3,000 -60 Descending Toronto Center
11:03PM 43.7667 -79.4333 295° West 180 207 3,000 -360 Level Toronto Center
11:04PM 43.7333 -79.5000 235° Southwest 200 230 2,300 -780 Descending Toronto Center
11:05PM 43.7000 -79.5333 216° Southwest 170 196 1,500 -720 Descending Toronto Center
11:06PM 43.6833 -79.5667 235° Southwest 130 150 900 -600 Descending Toronto Center